sensor_id;sensor_type;location;lat;lon;timestamp;pressure;altitude;pressure_sealevel;temperature;humidity
23619;BME280;18207;32.078;34.818;2023-01-23T00:00:05;101307.78;;;22.17;45.06
23619;BME280;18207;32.078;34.818;2023-01-23T00:02:38;101315.69;;;22.15;45.27
23619;BME280;18207;32.078;34.818;2023-01-23T00:05:09;101311.22;;;22.14;44.92
23619;BME280;18207;32.078;34.818;2023-01-23T00:07:40;101314.38;;;22.13;44.81
23619;BME280;18207;32.078;34.818;2023-01-23T00:10:11;101307.63;;;22.14;44.94
23619;BME280;18207;32.078;34.818;2023-01-23T00:12:45;101321.63;;;22.14;45.01
23619;BME280;18207;32.078;34.818;2023-01-23T00:15:16;101325.56;;;22.13;44.95
23619;BME280;18207;32.078;34.818;2023-01-23T00:17:46;101329.53;;;22.12;45.01
23619;BME280;18207;32.078;34.818;2023-01-23T00:20:17;101330.69;;;22.11;45.15
23619;BME280;18207;32.078;34.818;2023-01-23T00:22:49;101331.81;;;22.10;45.07
23619;BME280;18207;32.078;34.818;2023-01-23T00:25:20;101326.22;;;22.10;45.19
23619;BME280;18207;32.078;34.818;2023-01-23T00:27:53;101322.28;;;22.11;45.47
23619;BME280;18207;32.078;34.818;2023-01-23T00:30:23;101326.56;;;22.08;44.89
23619;BME280;18207;32.078;34.818;2023-01-23T00:32:54;101325.72;;;22.08;45.03
23619;BME280;18207;32.078;34.818;2023-01-23T00:35:24;101325.25;;;22.06;45.19
23619;BME280;18207;32.078;34.818;2023-01-23T00:37:55;101326.72;;;22.03;45.34
23619;BME280;18207;32.078;34.818;2023-01-23T00:40:26;101327.06;;;22.02;45.17
23619;BME280;18207;32.078;34.818;2023-01-23T00:42:59;101327.91;;;22.02;45.44
23619;BME280;18207;32.078;34.818;2023-01-23T00:45:30;101324.63;;;22.00;45.58
23619;BME280;18207;32.078;34.818;2023-01-23T00:48:00;101321.47;;;22.02;45.54
23619;BME280;18207;32.078;34.818;2023-01-23T00:50:31;101330.72;;;22.02;45.06
23619;BME280;18207;32.078;34.818;2023-01-23T00:53:02;101330.22;;;22.00;45.36
23619;BME280;18207;32.078;34.818;2023-01-23T00:55:32;101333.50;;;22.02;45.40
23619;BME280;18207;32.078;34.818;2023-01-23T00:58:05;101330.38;;;22.04;45.24
23619;BME280;18207;32.078;34.818;2023-01-23T01:00:36;101331.50;;;22.03;45.30
23619;BME280;18207;32.078;34.818;2023-01-23T01:03:08;101331.50;;;22.03;45.57
23619;BME280;18207;32.078;34.818;2023-01-23T01:05:38;101335.97;;;22.04;45.55
23619;BME280;18207;32.078;34.818;2023-01-23T01:08:09;101329.22;;;22.05;45.38
23619;BME280;18207;32.078;34.818;2023-01-23T01:10:40;101322.78;;;22.04;45.23
23619;BME280;18207;32.078;34.818;2023-01-23T01:13:14;101325.56;;;22.04;45.15
23619;BME280;18207;32.078;34.818;2023-01-23T01:15:47;101323.63;;;22.05;45.50
23619;BME280;18207;32.078;34.818;2023-01-23T01:18:19;101318.00;;;22.05;45.01
23619;BME280;18207;32.078;34.818;2023-01-23T01:20:50;101320.31;;;22.03;45.35
23619;BME280;18207;32.078;34.818;2023-01-23T01:23:21;101314.72;;;22.03;45.12
23619;BME280;18207;32.078;34.818;2023-01-23T01:25:57;101315.88;;;22.02;45.53
23619;BME280;18207;32.078;34.818;2023-01-23T01:28:36;101313.72;;;21.99;45.33
23619;BME280;18207;32.078;34.818;2023-01-23T01:31:12;101313.56;;;21.95;45.66
23619;BME280;18207;32.078;34.818;2023-01-23T01:33:44;101314.25;;;21.92;45.37
23619;BME280;18207;32.078;34.818;2023-01-23T01:36:17;101321.66;;;21.88;45.57
23619;BME280;18207;32.078;34.818;2023-01-23T01:38:47;101327.09;;;21.85;45.74
23619;BME280;18207;32.078;34.818;2023-01-23T01:41:18;101332.19;;;21.83;45.62
23619;BME280;18207;32.078;34.818;2023-01-23T01:43:51;101334.50;;;21.81;45.78
23619;BME280;18207;32.078;34.818;2023-01-23T01:46:26;101338.44;;;21.80;45.77
23619;BME280;18207;32.078;34.818;2023-01-23T01:49:08;101343.56;;;21.78;45.96
23619;BME280;18207;32.078;34.818;2023-01-23T01:51:45;101341.91;;;21.77;45.71
23619;BME280;18207;32.078;34.818;2023-01-23T01:54:24;101341.91;;;21.77;45.80
23619;BME280;18207;32.078;34.818;2023-01-23T01:57:06;101349.16;;;21.78;45.56
23619;BME280;18207;32.078;34.818;2023-01-23T01:59:48;101348.81;;;21.79;45.69
23619;BME280;18207;32.078;34.818;2023-01-23T02:02:25;101352.44;;;21.80;46.02
23619;BME280;18207;32.078;34.818;2023-01-23T02:05:02;101341.72;;;21.82;45.54
23619;BME280;18207;32.078;34.818;2023-01-23T02:07:39;101355.72;;;21.82;46.13
23619;BME280;18207;32.078;34.818;2023-01-23T02:10:12;101348.97;;;21.83;45.80
23619;BME280;18207;32.078;34.818;2023-01-23T02:12:46;101348.16;;;21.82;45.42
23619;BME280;18207;32.078;34.818;2023-01-23T02:15:21;101354.56;;;21.83;45.85
23619;BME280;18207;32.078;34.818;2023-01-23T02:17:53;101352.59;;;21.83;46.08
23619;BME280;18207;32.078;34.818;2023-01-23T02:20:26;101343.03;;;21.84;45.85
23619;BME280;18207;32.078;34.818;2023-01-23T02:23:08;101356.22;;;21.84;45.53
23619;BME280;18207;32.078;34.818;2023-01-23T02:25:53;101353.44;;;21.84;45.94
23619;BME280;18207;32.078;34.818;2023-01-23T02:28:37;101359.84;;;21.84;45.59
23619;BME280;18207;32.078;34.818;2023-01-23T02:31:09;101356.22;;;21.84;45.41
23619;BME280;18207;32.078;34.818;2023-01-23T02:33:50;101356.22;;;21.84;45.98
23619;BME280;18207;32.078;34.818;2023-01-23T02:36:24;101359.03;;;21.84;45.74
23619;BME280;18207;32.078;34.818;2023-01-23T02:39:07;101354.56;;;21.83;45.81
23619;BME280;18207;32.078;34.818;2023-01-23T02:41:44;101365.44;;;21.84;45.42
23619;BME280;18207;32.078;34.818;2023-01-23T02:44:18;101365.75;;;21.83;45.54
23619;BME280;18207;32.078;34.818;2023-01-23T02:46:55;101353.75;;;21.82;46.02
23619;BME280;18207;32.078;34.818;2023-01-23T02:49:27;101367.25;;;21.80;46.13
23619;BME280;18207;32.078;34.818;2023-01-23T02:51:58;101362.47;;;21.81;45.87
23619;BME280;18207;32.078;34.818;2023-01-23T02:54:30;101370.84;;;21.81;45.84
23619;BME280;18207;32.078;34.818;2023-01-23T02:57:03;101372.84;;;21.80;45.45
23619;BME280;18207;32.078;34.818;2023-01-23T02:59:33;101374.50;;;21.81;45.55
23619;BME280;18207;32.078;34.818;2023-01-23T03:02:21;101374.81;;;21.80;45.98
23619;BME280;18207;32.078;34.818;2023-01-23T03:04:51;101375.66;;;21.80;45.72
23619;BME280;18207;32.078;34.818;2023-01-23T03:07:21;101370.06;;;21.80;46.29
23619;BME280;18207;32.078;34.818;2023-01-23T03:09:52;101370.84;;;21.81;45.77
23619;BME280;18207;32.078;34.818;2023-01-23T03:12:24;101372.84;;;21.80;46.20
23619;BME280;18207;32.078;34.818;2023-01-23T03:14:54;101366.41;;;21.80;45.98
23619;BME280;18207;32.078;34.818;2023-01-23T03:17:26;101372.00;;;21.80;45.94
23619;BME280;18207;32.078;34.818;2023-01-23T03:19:57;101363.97;;;21.78;45.89
23619;BME280;18207;32.078;34.818;2023-01-23T03:22:44;101367.56;;;21.79;45.94
23619;BME280;18207;32.078;34.818;2023-01-23T03:25:17;101364.28;;;21.77;45.67
23619;BME280;18207;32.078;34.818;2023-01-23T03:27:50;101375.78;;;21.75;45.64
23619;BME280;18207;32.078;34.818;2023-01-23T03:30:21;101369.38;;;21.75;45.91
23619;BME280;18207;32.078;34.818;2023-01-23T03:32:50;101372.19;;;21.75;46.14
23619;BME280;18207;32.078;34.818;2023-01-23T03:35:21;101374.16;;;21.74;46.06
23619;BME280;18207;32.078;34.818;2023-01-23T03:37:52;101378.09;;;21.73;45.68
23619;BME280;18207;32.078;34.818;2023-01-23T03:40:24;101372.19;;;21.75;46.20
23619;BME280;18207;32.078;34.818;2023-01-23T03:43:13;101378.44;;;21.72;45.82
23619;BME280;18207;32.078;34.818;2023-01-23T03:45:43;101373.69;;;21.72;45.85
23619;BME280;18207;32.078;34.818;2023-01-23T03:48:14;101372.03;;;21.71;46.04
23619;BME280;18207;32.078;34.818;2023-01-23T03:50:44;101374.81;;;21.71;45.89
23619;BME280;18207;32.078;34.818;2023-01-23T03:53:24;101377.63;;;21.71;45.64
23619;BME280;18207;32.078;34.818;2023-01-23T03:55:54;101384.38;;;21.70;45.66
23619;BME280;18207;32.078;34.818;2023-01-23T03:58:26;101381.56;;;21.70;46.03
23619;BME280;18207;32.078;34.818;2023-01-23T04:00:58;101382.38;;;21.71;45.86
23619;BME280;18207;32.078;34.818;2023-01-23T04:03:30;101386.00;;;21.71;46.02
23619;BME280;18207;32.078;34.818;2023-01-23T04:06:00;101387.16;;;21.70;46.10
23619;BME280;18207;32.078;34.818;2023-01-23T04:08:31;101388.66;;;21.68;46.32
23619;BME280;18207;32.078;34.818;2023-01-23T04:11:03;101388.66;;;21.68;45.78
23619;BME280;18207;32.078;34.818;2023-01-23T04:13:37;101388.94;;;21.66;46.23
23619;BME280;18207;32.078;34.818;2023-01-23T04:16:08;101377.75;;;21.66;45.69
23619;BME280;18207;32.078;34.818;2023-01-23T04:18:39;101390.09;;;21.65;46.18
23619;BME280;18207;32.078;34.818;2023-01-23T04:21:09;101392.09;;;21.65;46.08
23619;BME280;18207;32.078;34.818;2023-01-23T04:23:40;101400.47;;;21.65;45.95
23619;BME280;18207;32.078;34.818;2023-01-23T04:26:11;101392.09;;;21.65;46.18
23619;BME280;18207;32.078;34.818;2023-01-23T04:28:43;101401.63;;;21.64;46.01
23619;BME280;18207;32.078;34.818;2023-01-23T04:31:14;101396.84;;;21.64;46.15
23619;BME280;18207;32.078;34.818;2023-01-23T04:33:45;101395.22;;;21.63;46.19
23619;BME280;18207;32.078;34.818;2023-01-23T04:36:16;101392.44;;;21.63;46.05
23619;BME280;18207;32.078;34.818;2023-01-23T04:38:47;101395.22;;;21.63;46.37
23619;BME280;18207;32.078;34.818;2023-01-23T04:41:20;101393.25;;;21.64;45.82
23619;BME280;18207;32.078;34.818;2023-01-23T04:43:53;101389.63;;;21.63;45.87
23619;BME280;18207;32.078;34.818;2023-01-23T04:46:23;101405.56;;;21.63;46.27
23619;BME280;18207;32.078;34.818;2023-01-23T04:48:54;101409.22;;;21.63;46.19
23619;BME280;18207;32.078;34.818;2023-01-23T04:51:25;101398.03;;;21.63;46.03
23619;BME280;18207;32.078;34.818;2023-01-23T04:53:55;101398.31;;;21.62;45.82
23619;BME280;18207;32.078;34.818;2023-01-23T04:56:25;101392.72;;;21.62;45.94
23619;BME280;18207;32.078;34.818;2023-01-23T04:58:58;101396.69;;;21.61;46.13
23619;BME280;18207;32.078;34.818;2023-01-23T05:01:28;101407.06;;;21.60;46.19
23619;BME280;18207;32.078;34.818;2023-01-23T05:03:58;101402.63;;;21.59;45.95
23619;BME280;18207;32.078;34.818;2023-01-23T05:06:29;101409.00;;;21.60;45.77
23619;BME280;18207;32.078;34.818;2023-01-23T05:09:00;101409.00;;;21.60;45.91
23619;BME280;18207;32.078;34.818;2023-01-23T05:11:30;101412.31;;;21.62;45.88
23619;BME280;18207;32.078;34.818;2023-01-23T05:14:03;101418.75;;;21.62;46.36
23619;BME280;18207;32.078;34.818;2023-01-23T05:16:34;101422.03;;;21.64;46.58
23619;BME280;18207;32.078;34.818;2023-01-23T05:19:04;101421.38;;;21.67;46.26
23619;BME280;18207;32.078;34.818;2023-01-23T05:21:35;101424.84;;;21.73;46.48
23619;BME280;18207;32.078;34.818;2023-01-23T05:24:06;101424.69;;;21.78;46.69
23619;BME280;18207;32.078;34.818;2023-01-23T05:26:37;101427.81;;;21.85;46.85
23619;BME280;18207;32.078;34.818;2023-01-23T05:29:10;101422.22;;;21.93;46.65
23619;BME280;18207;32.078;34.818;2023-01-23T05:31:43;101425.88;;;22.02;46.93
23619;BME280;18207;32.078;34.818;2023-01-23T05:34:17;101425.03;;;22.10;46.96
23619;BME280;18207;32.078;34.818;2023-01-23T05:36:48;101428.66;;;22.19;46.71
23619;BME280;18207;32.078;34.818;2023-01-23T05:39:18;101425.38;;;22.26;46.54
23619;BME280;18207;32.078;34.818;2023-01-23T05:41:49;101435.25;;;22.32;46.64
23619;BME280;18207;32.078;34.818;2023-01-23T05:44:21;101437.91;;;22.37;46.70
23619;BME280;18207;32.078;34.818;2023-01-23T05:46:52;101450.09;;;22.41;46.46
23619;BME280;18207;32.078;34.818;2023-01-23T05:49:23;101450.25;;;22.44;46.86
23619;BME280;18207;32.078;34.818;2023-01-23T05:51:54;101453.88;;;22.44;46.91
23619;BME280;18207;32.078;34.818;2023-01-23T05:54:25;101460.28;;;22.45;46.58
23619;BME280;18207;32.078;34.818;2023-01-23T05:56:56;101461.13;;;22.45;46.44
23619;BME280;18207;32.078;34.818;2023-01-23T05:59:30;101463.25;;;22.48;46.14
23619;BME280;18207;32.078;34.818;2023-01-23T06:02:01;101452.19;;;22.52;46.74
23619;BME280;18207;32.078;34.818;2023-01-23T06:04:32;101465.25;;;22.56;46.67
23619;BME280;18207;32.078;34.818;2023-01-23T06:07:03;101465.56;;;22.63;46.97
23619;BME280;18207;32.078;34.818;2023-01-23T06:09:34;101474.09;;;22.75;46.96
23619;BME280;18207;32.078;34.818;2023-01-23T06:12:06;101472.91;;;22.93;47.08
23619;BME280;18207;32.078;34.818;2023-01-23T06:14:39;101466.59;;;23.13;47.04
23619;BME280;18207;32.078;34.818;2023-01-23T06:17:11;101467.16;;;23.35;46.95
23619;BME280;18207;32.078;34.818;2023-01-23T06:19:41;101469.50;;;23.62;47.05
23619;BME280;18207;32.078;34.818;2023-01-23T06:22:13;101470.22;;;23.88;47.01
23619;BME280;18207;32.078;34.818;2023-01-23T06:24:43;101482.41;;;24.13;46.99
23619;BME280;18207;32.078;34.818;2023-01-23T06:27:14;101472.47;;;24.35;47.25
23619;BME280;18207;32.078;34.818;2023-01-23T06:29:46;101463.03;;;24.60;47.34
23619;BME280;18207;32.078;34.818;2023-01-23T06:32:17;101471.03;;;24.82;47.06
23619;BME280;18207;32.078;34.818;2023-01-23T06:34:48;101478.75;;;25.06;47.23
23619;BME280;18207;32.078;34.818;2023-01-23T06:37:19;101480.34;;;25.27;47.02
23619;BME280;18207;32.078;34.818;2023-01-23T06:39:49;101480.69;;;25.49;47.20
23619;BME280;18207;32.078;34.818;2023-01-23T06:42:19;101484.22;;;25.70;47.38
23619;BME280;18207;32.078;34.818;2023-01-23T06:44:59;101487.06;;;25.94;47.18
23619;BME280;18207;32.078;34.818;2023-01-23T06:47:29;101490.53;;;26.15;47.18
23619;BME280;18207;32.078;34.818;2023-01-23T06:50:00;101488.72;;;26.34;47.29
23619;BME280;18207;32.078;34.818;2023-01-23T06:52:30;101499.03;;;26.54;46.94
23619;BME280;18207;32.078;34.818;2023-01-23T06:55:01;101492.75;;;26.73;47.07
23619;BME280;18207;32.078;34.818;2023-01-23T06:57:33;101498.53;;;26.91;46.83
23619;BME280;18207;32.078;34.818;2023-01-23T07:00:06;101496.19;;;27.09;46.72
23619;BME280;18207;32.078;34.818;2023-01-23T07:02:37;101496.31;;;27.28;46.74
23619;BME280;18207;32.078;34.818;2023-01-23T07:05:12;101500.88;;;27.48;46.68
23619;BME280;18207;32.078;34.818;2023-01-23T07:07:42;101495.72;;;27.65;46.45
23619;BME280;18207;32.078;34.818;2023-01-23T07:10:21;101494.59;;;27.85;46.23
23619;BME280;18207;32.078;34.818;2023-01-23T07:12:54;101490.56;;;28.01;46.56
23619;BME280;18207;32.078;34.818;2023-01-23T07:15:28;101497.06;;;28.21;46.28
23619;BME280;18207;32.078;34.818;2023-01-23T07:18:02;101501.97;;;28.39;46.03
23619;BME280;18207;32.078;34.818;2023-01-23T07:20:33;101489.03;;;28.57;46.09
23619;BME280;18207;32.078;34.818;2023-01-23T07:23:05;101492.69;;;28.76;45.98
23619;BME280;18207;32.078;34.818;2023-01-23T07:25:37;101484.56;;;28.94;45.99
23619;BME280;18207;32.078;34.818;2023-01-23T07:28:07;101494.97;;;29.09;45.17
23619;BME280;18207;32.078;34.818;2023-01-23T07:30:39;101491.19;;;29.24;44.95
23619;BME280;18207;32.078;34.818;2023-01-23T07:33:12;101492.75;;;29.40;45.12
23619;BME280;18207;32.078;34.818;2023-01-23T07:35:42;101501.88;;;29.52;44.48
23619;BME280;18207;32.078;34.818;2023-01-23T07:38:12;101500.44;;;29.62;44.67
23619;BME280;18207;32.078;34.818;2023-01-23T07:40:42;101491.28;;;29.72;44.16
23619;BME280;18207;32.078;34.818;2023-01-23T07:43:16;101495.91;;;29.83;43.84
23619;BME280;18207;32.078;34.818;2023-01-23T07:45:48;101496.94;;;29.94;43.95
23619;BME280;18207;32.078;34.818;2023-01-23T07:48:33;101498.72;;;30.06;43.64
23619;BME280;18207;32.078;34.818;2023-01-23T07:51:07;101499.28;;;30.15;43.30
23619;BME280;18207;32.078;34.818;2023-01-23T07:53:37;101487.66;;;30.23;43.00
23619;BME280;18207;32.078;34.818;2023-01-23T07:56:21;101485.03;;;30.37;42.85
23619;BME280;18207;32.078;34.818;2023-01-23T07:58:51;101481.50;;;30.47;43.16
23619;BME280;18207;32.078;34.818;2023-01-23T08:01:26;101477.63;;;30.58;42.65
23619;BME280;18207;32.078;34.818;2023-01-23T08:03:57;101486.28;;;30.69;42.75
23619;BME280;18207;32.078;34.818;2023-01-23T08:06:37;101479.94;;;30.79;42.29
23619;BME280;18207;32.078;34.818;2023-01-23T08:09:07;101477.59;;;30.88;42.05
23619;BME280;18207;32.078;34.818;2023-01-23T08:11:39;101476.06;;;30.97;41.82
23619;BME280;18207;32.078;34.818;2023-01-23T08:14:13;101475.38;;;31.04;42.19
23619;BME280;18207;32.078;34.818;2023-01-23T08:16:50;101468.94;;;31.10;41.69
23619;BME280;18207;32.078;34.818;2023-01-23T08:19:22;101472.63;;;31.14;41.44
23619;BME280;18207;32.078;34.818;2023-01-23T08:21:55;101474.72;;;31.21;41.37
23619;BME280;18207;32.078;34.818;2023-01-23T08:24:25;101470.75;;;31.29;41.29
23619;BME280;18207;32.078;34.818;2023-01-23T08:26:57;101474.09;;;31.37;41.88
23619;BME280;18207;32.078;34.818;2023-01-23T08:29:27;101464.00;;;31.43;41.60
23619;BME280;18207;32.078;34.818;2023-01-23T08:32:03;101466.84;;;31.47;41.14
23619;BME280;18207;32.078;34.818;2023-01-23T08:34:33;101462.81;;;31.48;41.63
23619;BME280;18207;32.078;34.818;2023-01-23T08:37:04;101460.84;;;31.52;40.84
23619;BME280;18207;32.078;34.818;2023-01-23T08:39:34;101455.19;;;31.55;41.09
23619;BME280;18207;32.078;34.818;2023-01-23T08:42:04;101452.38;;;31.59;41.10
23619;BME280;18207;32.078;34.818;2023-01-23T08:44:34;101447.13;;;31.61;40.97
23619;BME280;18207;32.078;34.818;2023-01-23T08:47:09;101445.09;;;31.65;41.11
23619;BME280;18207;32.078;34.818;2023-01-23T08:49:40;101434.56;;;31.65;40.51
23619;BME280;18207;32.078;34.818;2023-01-23T08:52:10;101440.66;;;31.67;41.16
23619;BME280;18207;32.078;34.818;2023-01-23T08:54:41;101428.06;;;31.68;40.53
23619;BME280;18207;32.078;34.818;2023-01-23T08:57:15;101436.66;;;31.72;40.57
23619;BME280;18207;32.078;34.818;2023-01-23T08:59:45;101422.44;;;31.72;40.46
23619;BME280;18207;32.078;34.818;2023-01-23T09:02:20;101414.72;;;31.72;40.27
23619;BME280;18207;32.078;34.818;2023-01-23T09:04:51;101415.13;;;31.71;39.56
23619;BME280;18207;32.078;34.818;2023-01-23T09:07:21;101417.13;;;31.70;39.24
23619;BME280;18207;32.078;34.818;2023-01-23T09:09:51;101411.84;;;31.69;39.10
23619;BME280;18207;32.078;34.818;2023-01-23T09:12:26;101409.78;;;31.66;38.62
23619;BME280;18207;32.078;34.818;2023-01-23T09:14:58;101411.75;;;31.58;38.76
23619;BME280;18207;32.078;34.818;2023-01-23T09:17:31;101406.00;;;31.51;38.96
23619;BME280;18207;32.078;34.818;2023-01-23T09:20:05;101409.16;;;31.43;38.72
23619;BME280;18207;32.078;34.818;2023-01-23T09:22:36;101409.94;;;31.36;38.65
23619;BME280;18207;32.078;34.818;2023-01-23T09:25:08;101405.00;;;31.27;38.51
23619;BME280;18207;32.078;34.818;2023-01-23T09:27:40;101396.34;;;31.16;37.94
23619;BME280;18207;32.078;34.818;2023-01-23T09:30:11;101395.47;;;31.09;38.04
23619;BME280;18207;32.078;34.818;2023-01-23T09:32:44;101394.56;;;31.01;38.14
23619;BME280;18207;32.078;34.818;2023-01-23T09:35:14;101382.31;;;30.94;37.94
23619;BME280;18207;32.078;34.818;2023-01-23T09:37:45;101379.44;;;30.87;38.00
23619;BME280;18207;32.078;34.818;2023-01-23T09:40:35;101385.00;;;30.80;38.17
23619;BME280;18207;32.078;34.818;2023-01-23T09:43:14;101381.72;;;30.74;37.91
23619;BME280;18207;32.078;34.818;2023-01-23T09:46:03;101378.44;;;30.69;38.37
23619;BME280;18207;32.078;34.818;2023-01-23T09:48:44;101377.53;;;30.61;38.22
23619;BME280;18207;32.078;34.818;2023-01-23T09:51:24;101368.94;;;30.54;38.11
23619;BME280;18207;32.078;34.818;2023-01-23T09:54:03;101373.31;;;30.48;38.13
23619;BME280;18207;32.078;34.818;2023-01-23T09:56:43;101366.72;;;30.41;37.84
23619;BME280;18207;32.078;34.818;2023-01-23T09:59:23;101363.81;;;30.34;38.09
23619;BME280;18207;32.078;34.818;2023-01-23T10:01:56;101361.25;;;30.26;38.03
23619;BME280;18207;32.078;34.818;2023-01-23T10:04:30;101360.38;;;30.18;38.08
23619;BME280;18207;32.078;34.818;2023-01-23T10:07:28;101357.81;;;30.10;38.39
23619;BME280;18207;32.078;34.818;2023-01-23T10:10:44;101346.75;;;30.01;38.15
23619;BME280;18207;32.078;34.818;2023-01-23T10:13:23;101352.28;;;29.91;38.18
23619;BME280;18207;32.078;34.818;2023-01-23T10:16:27;101347.28;;;29.81;38.30
23619;BME280;18207;32.078;34.818;2023-01-23T10:19:43;101340.59;;;29.66;38.53
23619;BME280;18207;32.078;34.818;2023-01-23T10:22:32;101337.19;;;29.54;38.71
23619;BME280;18207;32.078;34.818;2023-01-23T10:25:13;101338.19;;;29.43;38.47
23619;BME280;18207;32.078;34.818;2023-01-23T10:27:49;101330.72;;;29.31;38.38
23619;BME280;18207;32.078;34.818;2023-01-23T10:30:26;101330.63;;;29.24;38.33
23619;BME280;18207;32.078;34.818;2023-01-23T10:33:00;101338.56;;;29.15;38.92
23619;BME280;18207;32.078;34.818;2023-01-23T10:35:42;101326.69;;;29.06;38.78
23619;BME280;18207;32.078;34.818;2023-01-23T10:38:25;101326.94;;;28.98;38.87
23619;BME280;18207;32.078;34.818;2023-01-23T10:40:57;101322.34;;;28.90;38.76
23619;BME280;18207;32.078;34.818;2023-01-23T10:43:48;101321.78;;;28.81;38.88
23619;BME280;18207;32.078;34.818;2023-01-23T10:46:22;101326.09;;;28.75;38.93
23619;BME280;18207;32.078;34.818;2023-01-23T10:48:58;101318.66;;;28.67;38.89
23619;BME280;18207;32.078;34.818;2023-01-23T10:51:45;101318.94;;;28.59;39.23
23619;BME280;18207;32.078;34.818;2023-01-23T10:54:20;101318.34;;;28.50;39.15
23619;BME280;18207;32.078;34.818;2023-01-23T10:57:02;101323.06;;;28.42;39.32
23619;BME280;18207;32.078;34.818;2023-01-23T10:59:37;101310.78;;;28.35;39.22
23619;BME280;18207;32.078;34.818;2023-01-23T11:02:21;101309.47;;;28.29;39.44
23619;BME280;18207;32.078;34.818;2023-01-23T11:04:56;101306.13;;;28.23;39.29
23619;BME280;18207;32.078;34.818;2023-01-23T11:07:31;101314.88;;;28.18;39.80
23619;BME280;18207;32.078;34.818;2023-01-23T11:10:15;101309.53;;;28.13;39.58
23619;BME280;18207;32.078;34.818;2023-01-23T11:12:50;101303.72;;;28.06;39.71
23619;BME280;18207;32.078;34.818;2023-01-23T11:15:24;101300.38;;;28.01;39.59
23619;BME280;18207;32.078;34.818;2023-01-23T11:17:58;101299.84;;;27.95;39.79
23619;BME280;18207;32.078;34.818;2023-01-23T11:20:37;101301.34;;;27.89;39.71
23619;BME280;18207;32.078;34.818;2023-01-23T11:23:15;101302.47;;;27.85;39.73
23619;BME280;18207;32.078;34.818;2023-01-23T11:25:49;101294.31;;;27.80;39.96
23619;BME280;18207;32.078;34.818;2023-01-23T11:28:23;101297.88;;;27.77;39.76
23619;BME280;18207;32.078;34.818;2023-01-23T11:31:02;101297.78;;;27.74;40.02
23619;BME280;18207;32.078;34.818;2023-01-23T11:33:49;101297.28;;;27.68;39.94
23619;BME280;18207;32.078;34.818;2023-01-23T11:36:41;101296.75;;;27.63;40.23
23619;BME280;18207;32.078;34.818;2023-01-23T11:39:37;101286.53;;;27.58;40.27
23619;BME280;18207;32.078;34.818;2023-01-23T11:42:10;101294.47;;;27.53;39.87
23619;BME280;18207;32.078;34.818;2023-01-23T11:44:40;101295.94;;;27.47;40.31
23619;BME280;18207;32.078;34.818;2023-01-23T11:47:49;101292.50;;;27.38;40.13
23619;BME280;18207;32.078;34.818;2023-01-23T11:50:34;101292.72;;;27.29;39.95
23619;BME280;18207;32.078;34.818;2023-01-23T11:53:30;101303.03;;;27.22;39.98
23619;BME280;18207;32.078;34.818;2023-01-23T11:57:02;101289.47;;;27.12;39.85
23619;BME280;18207;32.078;34.818;2023-01-23T11:59:55;101284.84;;;27.04;39.83
23619;BME280;18207;32.078;34.818;2023-01-23T12:03:13;101287.47;;;26.97;39.99
23619;BME280;18207;32.078;34.818;2023-01-23T12:06:37;101284.91;;;26.92;39.80
23619;BME280;18207;32.078;34.818;2023-01-23T12:09:11;101282.00;;;26.88;39.74
23619;BME280;18207;32.078;34.818;2023-01-23T12:12:05;101279.09;;;26.85;39.70
23619;BME280;18207;32.078;34.818;2023-01-23T12:14:52;101276.22;;;26.82;39.79
23619;BME280;18207;32.078;34.818;2023-01-23T12:17:39;101287.38;;;26.78;39.75
23619;BME280;18207;32.078;34.818;2023-01-23T12:20:30;101283.66;;;26.74;39.67
23619;BME280;18207;32.078;34.818;2023-01-23T12:23:25;101283.91;;;26.69;39.76
23619;BME280;18207;32.078;34.818;2023-01-23T12:26:11;101279.03;;;26.66;39.72
23619;BME280;18207;32.078;34.818;2023-01-23T12:29:23;101281.38;;;26.64;39.96
23619;BME280;18207;32.078;34.818;2023-01-23T12:32:13;101273.66;;;26.61;39.83
23619;BME280;18207;32.078;34.818;2023-01-23T12:35:18;101282.81;;;26.58;39.86
23619;BME280;18207;32.078;34.818;2023-01-23T12:38:09;101280.38;;;26.57;39.96
23619;BME280;18207;32.078;34.818;2023-01-23T12:40:49;101281.09;;;26.54;39.66
23619;BME280;18207;32.078;34.818;2023-01-23T12:43:34;101283.47;;;26.52;39.93
23619;BME280;18207;32.078;34.818;2023-01-23T12:46:14;101283.03;;;26.50;39.99
23619;BME280;18207;32.078;34.818;2023-01-23T12:48:54;101280.19;;;26.50;39.88
23619;BME280;18207;32.078;34.818;2023-01-23T12:51:35;101289.84;;;26.49;40.26
23619;BME280;18207;32.078;34.818;2023-01-23T12:54:15;101289.00;;;26.48;40.06
23619;BME280;18207;32.078;34.818;2023-01-23T12:56:48;101287.72;;;26.46;40.18
23619;BME280;18207;32.078;34.818;2023-01-23T12:59:36;101290.09;;;26.44;40.19
23619;BME280;18207;32.078;34.818;2023-01-23T13:02:20;101289.28;;;26.43;40.21
23619;BME280;18207;32.078;34.818;2023-01-23T13:05:09;101297.75;;;26.43;40.28
23619;BME280;18207;32.078;34.818;2023-01-23T13:07:53;101303.75;;;26.42;40.47
23619;BME280;18207;32.078;34.818;2023-01-23T13:10:58;101302.91;;;26.41;40.50
23619;BME280;18207;32.078;34.818;2023-01-23T13:13:49;101300.47;;;26.40;40.58
23619;BME280;18207;32.078;34.818;2023-01-23T13:16:32;101300.47;;;26.40;40.58
23619;BME280;18207;32.078;34.818;2023-01-23T13:19:25;101295.16;;;26.38;40.46
23619;BME280;18207;32.078;34.818;2023-01-23T13:22:24;101293.88;;;26.36;40.59
23619;BME280;18207;32.078;34.818;2023-01-23T13:25:06;101289.06;;;26.36;40.54